createdAt,value
2023-01-07T00:04:11.025Z,6.00
2023-01-07T00:09:16.406Z,5.80
2023-01-07T00:14:20.209Z,5.40
2023-01-07T00:19:24.315Z,5.20
2023-01-07T00:24:27.975Z,5.80
2023-01-07T00:29:31.524Z,4.70
2023-01-07T00:34:35.143Z,5.50
2023-01-07T00:39:41.918Z,5.10
2023-01-07T00:44:45.749Z,5.10
2023-01-07T00:49:49.290Z,5.80
2023-01-07T00:54:52.933Z,5.40
2023-01-07T00:59:56.507Z,5.50
2023-01-07T01:05:00.301Z,5.60
2023-01-07T01:10:03.880Z,5.30
2023-01-07T01:15:07.531Z,5.10
2023-01-07T01:20:11.074Z,4.80
2023-01-07T01:25:14.647Z,4.90
2023-01-07T01:35:21.935Z,4.90
2023-01-07T01:40:25.478Z,5.50
2023-01-07T01:45:29.071Z,4.80
2023-01-07T01:50:32.691Z,5.10
2023-01-07T01:55:36.296Z,5.10
2023-01-07T02:00:39.845Z,4.60
2023-01-07T02:05:43.416Z,5.10
2023-01-07T02:10:48.156Z,4.70
2023-01-07T02:15:51.832Z,4.70
2023-01-07T02:20:55.415Z,4.30
2023-01-07T02:25:58.985Z,5.70
2023-01-07T02:31:02.552Z,4.70
2023-01-07T02:36:06.161Z,4.20
2023-01-07T02:41:09.700Z,5.00
2023-01-07T02:46:13.342Z,4.70
2023-01-07T02:51:16.985Z,4.70
2023-01-07T02:56:21.278Z,4.50
2023-01-07T03:01:25.026Z,4.60
2023-01-07T03:11:32.607Z,4.80
2023-01-07T03:16:36.204Z,4.30
2023-01-07T03:21:39.871Z,4.60
2023-01-07T03:26:43.494Z,4.50
2023-01-07T03:31:47.073Z,5.40
2023-01-07T03:36:53.064Z,4.50
2023-01-07T03:42:14.165Z,4.90
2023-01-07T03:47:18.018Z,4.40
2023-01-07T03:52:21.620Z,5.20
2023-01-07T03:57:25.290Z,5.20
2023-01-07T04:02:30.842Z,5.30
2023-01-07T04:07:34.408Z,5.30
2023-01-07T04:12:37.960Z,5.10
2023-01-07T04:17:41.493Z,4.70
2023-01-07T04:22:45.003Z,5.00
2023-01-07T04:27:48.554Z,5.50
2023-01-07T04:32:52.641Z,5.40
2023-01-07T04:37:56.250Z,5.70
2023-01-07T04:42:59.823Z,5.20
2023-01-07T04:48:03.371Z,5.60
2023-01-07T04:53:07.183Z,5.20
2023-01-07T04:58:10.718Z,5.80
2023-01-07T05:03:14.268Z,5.20
2023-01-07T05:08:17.831Z,5.30
2023-01-07T05:13:21.373Z,6.10
2023-01-07T05:18:24.951Z,6.30
2023-01-07T05:23:29.626Z,6.80
2023-01-07T05:28:33.190Z,5.70
2023-01-07T05:33:36.808Z,6.30
2023-01-07T05:38:40.367Z,6.40
2023-01-07T05:43:45.957Z,6.50
2023-01-07T05:48:49.522Z,5.70
2023-01-07T05:53:53.076Z,6.50
2023-01-07T05:58:56.622Z,6.30
2023-01-07T06:04:00.296Z,5.90
2023-01-07T06:09:03.854Z,6.20
2023-01-07T06:14:08.611Z,5.80
2023-01-07T06:19:12.278Z,6.70
2023-01-07T06:24:16.915Z,6.60
2023-01-07T06:29:20.461Z,7.00
2023-01-07T06:34:25.056Z,6.70
2023-01-07T06:39:28.790Z,6.10
2023-01-07T06:44:32.412Z,6.50
2023-01-07T06:49:35.946Z,6.40
2023-01-07T06:54:39.487Z,6.50
2023-01-07T06:59:44.085Z,6.70
2023-01-07T07:04:47.865Z,7.00
2023-01-07T07:09:51.820Z,7.30
2023-01-07T07:19:58.930Z,6.90
2023-01-07T07:25:03.530Z,7.10
2023-01-07T07:30:08.189Z,7.30
2023-01-07T07:35:11.863Z,7.30
2023-01-07T07:40:15.410Z,7.80
2023-01-07T07:45:19.966Z,7.20
2023-01-07T07:50:23.493Z,7.50
2023-01-07T07:55:27.252Z,7.80
2023-01-07T08:00:30.969Z,7.20
2023-01-07T08:05:34.702Z,8.10
2023-01-07T08:10:38.505Z,7.40
2023-01-07T08:15:42.287Z,9.50
2023-01-07T08:20:48.001Z,9.30
2023-01-07T08:25:51.624Z,8.80
2023-01-07T08:30:55.293Z,9.10
2023-01-07T08:35:58.964Z,11.30
2023-01-07T08:41:02.564Z,12.20
2023-01-07T08:46:06.319Z,11.70
2023-01-07T08:51:09.917Z,10.60
2023-01-07T08:56:13.491Z,10.70
2023-01-07T09:01:17.165Z,11.50
2023-01-07T09:06:20.919Z,11.50
2023-01-07T09:11:24.671Z,11.60
2023-01-07T09:16:28.288Z,11.50
2023-01-07T09:21:32.011Z,12.00
2023-01-07T09:26:35.613Z,12.70
2023-01-07T09:31:39.261Z,11.90
2023-01-07T09:36:44.036Z,12.60
2023-01-07T09:41:47.638Z,11.40
2023-01-07T09:46:51.320Z,12.10
2023-01-07T09:51:54.876Z,12.70
2023-01-07T09:56:58.519Z,13.20
2023-01-07T10:02:02.097Z,12.10
2023-01-07T10:07:07.838Z,11.50
2023-01-07T10:12:11.399Z,12.10
2023-01-07T10:17:14.956Z,11.40
2023-01-07T10:24:16.049Z,12.80
2023-01-07T10:29:19.635Z,12.50
2023-01-07T10:34:23.176Z,12.10
2023-01-07T10:39:26.743Z,11.90
2023-01-07T10:44:30.430Z,13.20
2023-01-07T10:49:34.119Z,11.90
2023-01-07T10:54:38.287Z,11.80
2023-01-07T10:59:41.841Z,11.80
2023-01-07T11:04:45.497Z,11.20
2023-01-07T11:09:49.395Z,11.30
2023-01-07T11:14:52.988Z,12.60
2023-01-07T11:19:56.795Z,10.20
2023-01-07T11:25:00.329Z,11.40
2023-01-07T11:30:04.144Z,10.60
2023-01-07T11:35:07.720Z,10.50
2023-01-07T11:40:11.265Z,10.40
2023-01-07T11:45:14.979Z,10.10
2023-01-07T11:50:18.603Z,10.00
2023-01-07T11:55:22.173Z,9.60
2023-01-07T12:00:25.724Z,9.60
2023-01-07T12:05:30.276Z,9.10
2023-01-07T12:10:33.947Z,9.60
2023-01-07T12:15:37.638Z,9.00
2023-01-07T12:20:41.168Z,10.00
2023-01-07T12:25:45.474Z,8.50
2023-01-07T12:30:51.015Z,9.00
2023-01-07T12:35:54.645Z,8.90
2023-01-07T12:40:58.184Z,8.60
2023-01-07T12:46:01.746Z,8.80
2023-01-07T12:51:05.301Z,7.70
2023-01-07T12:56:08.837Z,7.80
2023-01-07T13:01:12.549Z,7.10
2023-01-07T13:06:16.148Z,7.40
2023-01-07T13:11:20.402Z,7.80
2023-01-07T13:16:24.036Z,7.10
2023-01-07T13:21:27.608Z,6.80
2023-01-07T13:26:31.960Z,7.00
2023-01-07T13:31:35.597Z,6.70
2023-01-07T13:36:39.210Z,6.80
2023-01-07T13:41:42.842Z,6.30
2023-01-07T13:46:46.479Z,6.10
2023-01-07T13:51:50.255Z,6.20
2023-01-07T13:56:53.866Z,5.90
2023-01-07T14:01:57.485Z,6.30
2023-01-07T14:07:01.125Z,5.50
2023-01-07T14:12:04.691Z,6.40
2023-01-07T14:17:08.254Z,7.00
2023-01-07T14:22:11.777Z,5.70
2023-01-07T14:27:15.297Z,5.80
2023-01-07T14:32:18.900Z,5.40
2023-01-07T14:37:22.653Z,5.40
2023-01-07T14:42:26.320Z,5.70
2023-01-07T14:47:29.881Z,5.30
2023-01-07T14:52:33.406Z,5.60
2023-01-07T14:57:36.988Z,4.90
2023-01-07T15:02:40.700Z,6.20
2023-01-07T15:07:44.379Z,5.70
2023-01-07T15:13:05.863Z,5.60
2023-01-07T15:18:09.513Z,6.10
2023-01-07T15:23:13.202Z,5.90
2023-01-07T15:28:16.884Z,5.60
2023-01-07T15:33:20.608Z,5.90
2023-01-07T15:38:24.293Z,5.40
2023-01-07T15:43:28.524Z,5.10
2023-01-07T15:48:32.081Z,6.20
2023-01-07T15:53:35.619Z,5.50
2023-01-07T15:58:39.871Z,5.70
2023-01-07T16:03:45.781Z,5.10
2023-01-07T16:08:49.293Z,5.40
2023-01-07T16:13:52.870Z,6.60
2023-01-07T16:18:56.598Z,7.40
2023-01-07T16:24:01.287Z,6.60
2023-01-07T16:33:12.863Z,6.60
2023-01-07T16:38:16.649Z,7.80
2023-01-07T16:43:20.484Z,16.30
2023-01-07T16:48:24.272Z,14.90
2023-01-07T16:53:28.136Z,15.10
2023-01-07T16:58:31.720Z,17.30
2023-01-07T17:03:35.501Z,17.70
2023-01-07T17:08:39.526Z,13.90
2023-01-07T17:13:44.119Z,14.50
2023-01-07T17:18:47.675Z,14.20
2023-01-07T17:23:51.598Z,14.30
2023-01-07T17:28:55.195Z,17.20
2023-01-07T17:33:58.924Z,18.50
2023-01-07T17:39:02.594Z,17.00
2023-01-07T17:44:06.174Z,16.10
2023-01-07T17:49:09.801Z,15.50
2023-01-07T17:54:13.338Z,21.30
2023-01-07T17:59:17.247Z,17.90
2023-01-07T18:04:21.486Z,20.10
2023-01-07T18:09:25.218Z,18.30
2023-01-07T18:14:28.841Z,19.40
2023-01-07T18:19:32.877Z,24.10
2023-01-07T18:24:36.438Z,22.60
2023-01-07T18:29:40.129Z,27.40
2023-01-07T18:34:43.851Z,27.10
2023-01-07T18:39:47.396Z,34.70
2023-01-07T18:44:51.115Z,28.70
2023-01-07T18:49:54.717Z,34.80
2023-01-07T18:54:58.283Z,32.60
2023-01-07T19:00:01.856Z,34.00
2023-01-07T19:05:05.508Z,33.70
2023-01-07T19:10:09.062Z,34.40
2023-01-07T19:15:12.606Z,34.20
2023-01-07T19:20:16.733Z,33.80
2023-01-07T19:25:20.350Z,32.40
2023-01-07T19:30:24.028Z,33.00
2023-01-07T19:35:28.122Z,31.20
2023-01-07T19:45:35.475Z,33.50
2023-01-07T19:50:39.440Z,32.80
2023-01-07T19:55:43.039Z,32.90
2023-01-07T20:00:46.659Z,34.50
2023-01-07T20:05:50.380Z,39.30
2023-01-07T20:10:54.009Z,42.70
2023-01-07T20:15:57.549Z,34.40
2023-01-07T20:21:01.315Z,34.60
2023-01-07T20:26:06.774Z,33.90
2023-01-07T20:31:10.926Z,34.60
2023-01-07T20:36:14.474Z,34.30
2023-01-07T20:41:18.307Z,35.00
2023-01-07T20:51:25.831Z,34.60
2023-01-07T20:56:32.499Z,37.50
2023-01-07T21:01:36.780Z,38.50
2023-01-07T21:06:41.375Z,47.00
2023-01-07T21:11:48.024Z,37.90
2023-01-07T21:16:51.671Z,31.80
2023-01-07T21:21:55.466Z,30.60
2023-01-07T21:29:13.005Z,26.10
2023-01-07T21:34:21.484Z,26.10
2023-01-07T21:39:30.057Z,22.60
2023-01-07T21:44:38.938Z,36.70
2023-01-07T21:49:49.599Z,25.30
2023-01-07T21:54:58.158Z,26.60
2023-01-07T22:00:08.482Z,23.10
2023-01-07T22:05:16.817Z,20.40
2023-01-07T22:10:25.311Z,23.40
2023-01-07T22:15:33.780Z,21.70
2023-01-07T22:20:42.074Z,25.30
2023-01-07T22:25:50.464Z,25.10
2023-01-07T22:31:00.763Z,22.90
2023-01-07T22:36:11.597Z,21.90
2023-01-07T22:41:20.379Z,23.40
2023-01-07T22:46:33.783Z,19.90
2023-01-07T22:51:47.860Z,21.80
2023-01-07T22:56:56.388Z,22.90
2023-01-07T23:02:04.997Z,22.50
2023-01-07T23:07:13.344Z,21.80
2023-01-07T23:12:27.556Z,20.70
2023-01-07T23:17:35.835Z,22.10
2023-01-07T23:22:44.151Z,22.10
2023-01-07T23:27:54.076Z,22.20
2023-01-07T23:33:02.586Z,21.90
2023-01-07T23:38:11.121Z,20.80
2023-01-07T23:43:19.531Z,20.90
2023-01-07T23:48:28.030Z,21.90
2023-01-07T23:53:36.731Z,21.30
2023-01-07T23:58:45.174Z,21.90
